Main page
METAR-TAF:

METAR-TAF

Airports :

Altenstadt Air Base

Altenstadt, Germany

latitude: 47-50N, longitude: 010-52E, elevation: 739 m

Current weather observation

The report was made 56 minutes ago, at 14:20 UTC
Wind 4 kt from the West/Northwest
Temperature 8°C
Humidity 49%
Pressure 1019 hPa
Visibility 10 km or more
Few clouds at a height of 4000 ft
Broken clouds at a height of 26000 ft

METAR: ETHA 201420Z 29004KT 9999 FEW040 BKN260 08/M02 Q1019 BLU+BLU+

Time: 16:16 (15:16 UTC)

Forecast

The report was made 59 minutes ago, at 14:17 UTC
Forecast valid from 20 at 15 UTC to 20 at 24 UTC
Wind 5 kt from the West/Southwest
Visibility 10 km or more
Few clouds at a height of 4000 ft
Broken clouds at a height of 25000 ft

TAF: ETHA 201417Z 2015/2024 24005KT 9999 NSW FEW040 BKN250

Weather observations and forecasts of more than 4000 airports (METAR and TAF reports).

The available stations are represented by yellow and red dots on the map.

Hover mouse over dot to see the name of the station.

Then click to see weather observations and forecasts.

To change the map : click on the green buttons with a black cross to zoom in, on the green button with a dash to zoom out, or on the green arrows for adjacent maps.


METAR-TAF: